Time;durP1;ratioP1;P1;durP2;ratioP2;P2;SDS_P1;SDS_P2;PMS_P1;PMS_P2;Temp;Humidity;BMP_temperature;BMP_pressure;BME280_temperature;BME280_humidity;BME280_pressure;Samples;Min_cycle;Max_cycle;Signal;HPM_P1;HPM_P2
2023/10/28 00:00:47;;;;;;;7.90;1.90;;;;;;;23.78;53.26;98397.31;109957;1276;21923;-69
2023/10/28 00:03:13;;;;;;;7.00;2.10;;;;;;;23.79;53.10;98420.53;109951;1277;21866;-59
2023/10/28 00:05:39;;;;;;;6.30;1.60;;;;;;;23.78;53.06;98436.42;109967;1283;22278;-70
2023/10/28 00:08:05;;;;;;;6.40;2.00;;;;;;;23.76;52.87;98442.95;109962;1275;21963;-63
2023/10/28 00:10:32;;;;;;;9.30;2.10;;;;;;;23.74;52.81;98446.05;109951;1278;21910;-60
2023/10/28 00:12:59;;;;;;;7.70;1.90;;;;;;;23.71;52.60;98460.46;109961;1286;21991;-60
2023/10/28 00:15:25;;;;;;;7.10;2.70;;;;;;;23.67;52.58;98450.16;109942;1274;21916;-60
2023/10/28 00:17:51;;;;;;;6.10;2.10;;;;;;;23.64;52.65;98448.14;109962;1280;21899;-71
2023/10/28 00:20:17;;;;;;;8.10;1.80;;;;;;;23.62;52.38;98442.75;109901;1280;22111;-71
2023/10/28 00:22:47;;;;;;;8.40;2.40;;;;;;;23.60;52.42;98439.31;109967;1282;21905;-60
2023/10/28 00:25:13;;;;;;;7.50;1.80;;;;;;;23.60;52.40;98437.04;109956;1284;22096;-60
2023/10/28 00:27:40;;;;;;;7.40;2.30;;;;;;;23.60;52.45;98435.59;109966;1286;21915;-71
2023/10/28 00:30:07;;;;;;;7.60;2.20;;;;;;;23.60;52.28;98429.02;109975;1283;21878;-59
2023/10/28 00:32:34;;;;;;;6.40;1.80;;;;;;;23.59;52.26;98437.30;109979;1286;21893;-60
2023/10/28 00:34:59;;;;;;;8.60;2.10;;;;;;;23.57;52.08;98436.80;109945;1279;22016;-60
2023/10/28 00:37:26;;;;;;;4.90;1.70;;;;;;;23.55;51.96;98426.20;109954;1286;21932;-60
2023/10/28 00:39:52;;;;;;;5.10;1.90;;;;;;;23.54;51.96;98424.71;109927;1284;21954;-73
2023/10/28 00:42:17;;;;;;;5.40;1.90;;;;;;;23.52;51.77;98425.46;109919;1276;22054;-72
2023/10/28 00:44:43;;;;;;;10.50;1.70;;;;;;;23.54;51.46;98430.29;109922;1280;21941;-73
2023/10/28 00:47:09;;;;;;;5.20;1.60;;;;;;;23.57;51.12;98428.52;109936;1283;22056;-60
2023/10/28 00:49:35;;;;;;;5.10;1.40;;;;;;;23.60;50.98;98423.95;109919;1284;21987;-73
2023/10/28 00:52:01;;;;;;;4.70;1.40;;;;;;;23.62;50.77;98427.15;109949;1280;21964;-72
2023/10/28 00:54:27;;;;;;;3.60;1.60;;;;;;;23.66;50.67;98428.63;109935;1275;22000;-60
2023/10/28 00:56:56;;;;;;;6.80;1.50;;;;;;;23.66;49.81;98422.02;109951;1286;22003;-60
2023/10/28 00:59:22;;;;;;;5.00;1.40;;;;;;;23.67;49.66;98417.75;109917;1276;21974;-70
2023/10/28 01:01:47;;;;;;;7.70;2.20;;;;;;;23.72;49.42;98417.39;109958;1286;22008;-62
2023/10/28 01:04:13;;;;;;;3.90;1.20;;;;;;;23.76;49.35;98408.44;109918;1286;22115;-71
2023/10/28 01:06:38;;;;;;;2.70;1.00;;;;;;;23.77;49.07;98400.27;109969;1279;21918;-60
2023/10/28 01:09:04;;;;;;;4.50;1.20;;;;;;;23.81;48.96;98397.38;109861;1286;21949;-60
2023/10/28 01:11:30;;;;;;;4.20;1.10;;;;;;;23.84;48.57;98395.16;109958;1274;21907;-71
2023/10/28 01:13:56;;;;;;;3.60;0.90;;;;;;;23.85;48.41;98397.19;109964;1277;22000;-72
2023/10/28 01:16:22;;;;;;;4.00;0.90;;;;;;;23.89;47.96;98395.73;109907;1280;22042;-67
2023/10/28 01:18:55;;;;;;;5.60;1.10;;;;;;;23.88;47.89;98388.31;109937;1279;22001;-60
2023/10/28 01:21:21;;;;;;;2.50;0.80;;;;;;;23.89;47.79;98389.63;109944;1278;21949;-59
2023/10/28 01:23:46;;;;;;;3.60;1.20;;;;;;;23.90;47.60;98402.06;109953;1276;21932;-59
2023/10/28 01:26:12;;;;;;;6.30;1.10;;;;;;;23.89;47.41;98429.21;109961;1279;21984;-59
2023/10/28 01:28:38;;;;;;;2.80;0.90;;;;;;;23.85;47.25;98441.73;109973;1274;21933;-60
2023/10/28 01:31:03;;;;;;;3.70;1.00;;;;;;;23.82;47.08;98440.10;109963;1284;21931;-60
2023/10/28 01:33:29;;;;;;;3.00;1.20;;;;;;;23.79;46.82;98448.28;109970;1279;21900;-60
2023/10/28 01:35:54;;;;;;;2.40;0.90;;;;;;;23.77;46.87;98440.73;109954;1280;21913;-74
2023/10/28 01:38:23;;;;;;;4.30;1.20;;;;;;;23.75;46.74;98446.27;109954;1273;22014;-75
2023/10/28 01:40:51;;;;;;;3.80;0.90;;;;;;;23.75;46.71;98462.44;109857;1280;21908;-59
2023/10/28 01:43:17;;;;;;;3.00;1.00;;;;;;;23.75;46.52;98462.95;109963;1276;21969;-59
2023/10/28 01:45:42;;;;;;;3.90;0.80;;;;;;;23.73;46.48;98469.09;109964;1283;21902;-59
2023/10/28 01:48:08;;;;;;;5.60;1.20;;;;;;;23.71;46.51;98465.99;109971;1286;21937;-74
2023/10/28 01:50:34;;;;;;;4.20;1.00;;;;;;;23.71;46.24;98463.73;109961;1286;22031;-59
2023/10/28 01:52:59;;;;;;;2.30;0.80;;;;;;;23.71;46.40;98469.95;109962;1280;21949;-60
2023/10/28 01:55:25;;;;;;;2.40;0.80;;;;;;;23.72;46.32;98473.48;109968;1286;22001;-60
2023/10/28 01:57:51;;;;;;;4.20;1.00;;;;;;;23.73;46.01;98478.02;109941;1275;21965;-72
2023/10/28 02:00:17;;;;;;;4.90;0.90;;;;;;;23.74;45.92;98484.16;109896;1282;22749;-72
2023/10/28 02:02:45;;;;;;;5.90;1.00;;;;;;;23.74;45.89;98492.98;109891;1281;21846;-72
2023/10/28 02:05:11;;;;;;;3.70;1.10;;;;;;;23.73;45.77;98494.89;109938;1283;22042;-73
2023/10/28 02:07:37;;;;;;;3.30;0.70;;;;;;;23.72;45.67;98500.14;109948;1283;21946;-60
2023/10/28 02:10:05;;;;;;;2.40;0.70;;;;;;;23.70;45.38;98499.74;109930;1286;21887;-73
2023/10/28 02:12:34;;;;;;;2.00;0.60;;;;;;;23.69;45.25;98500.27;109929;1286;22414;-60
2023/10/28 02:15:08;;;;;;;2.30;0.60;;;;;;;23.65;45.20;98504.81;109946;1283;21986;-60
2023/10/28 02:17:38;;;;;;;1.50;0.50;;;;;;;23.59;45.27;98513.92;109921;1279;21952;-59
2023/10/28 02:20:04;;;;;;;1.50;0.50;;;;;;;23.53;45.28;98515.55;109887;1283;22299;-64
2023/10/28 02:22:33;;;;;;;2.70;0.40;;;;;;;23.49;45.14;98514.21;109907;1287;21918;-72
2023/10/28 02:24:59;;;;;;;3.40;0.80;;;;;;;23.49;44.92;98510.75;109909;1286;21975;-60
2023/10/28 02:27:25;;;;;;;3.70;0.60;;;;;;;23.47;44.94;98508.78;109904;1280;21974;-73
2023/10/28 02:29:50;;;;;;;0.70;0.40;;;;;;;23.43;44.84;98515.56;109876;1276;21941;-58
2023/10/28 02:32:16;;;;;;;1.20;0.40;;;;;;;23.45;44.69;98518.97;109912;1283;22080;-69
2023/10/28 02:34:42;;;;;;;3.90;0.60;;;;;;;23.49;44.58;98516.52;109910;1286;21934;-60
2023/10/28 02:37:07;;;;;;;2.20;0.40;;;;;;;23.52;44.57;98524.94;109902;1287;21966;-72
2023/10/28 02:39:33;;;;;;;2.00;0.50;;;;;;;23.56;44.50;98530.13;109914;1279;21955;-61
2023/10/28 02:42:00;;;;;;;2.40;0.70;;;;;;;23.60;44.20;98526.72;109890;1283;21967;-72
2023/10/28 02:44:26;;;;;;;5.40;0.80;;;;;;;23.63;44.18;98524.86;109906;1276;22097;-72
2023/10/28 02:46:55;;;;;;;1.90;0.70;;;;;;;23.63;44.22;98525.88;109814;1277;21950;-72
2023/10/28 02:49:21;;;;;;;1.30;0.40;;;;;;;23.63;44.02;98535.88;109880;1283;21951;-72
2023/10/28 02:51:46;;;;;;;1.40;0.30;;;;;;;23.60;44.00;98548.37;109892;1287;22020;-70
2023/10/28 02:54:14;;;;;;;2.10;0.50;;;;;;;23.59;43.98;98552.61;109905;1287;22092;-72
2023/10/28 02:56:40;;;;;;;4.00;0.30;;;;;;;23.62;43.80;98558.73;109914;1286;22042;-72
2023/10/28 02:59:06;;;;;;;1.40;0.50;;;;;;;23.62;43.69;98562.15;109900;1287;21906;-60
2023/10/28 03:01:36;;;;;;;1.50;0.50;;;;;;;23.57;43.56;98559.73;109908;1287;21971;-67
2023/10/28 03:04:03;;;;;;;1.40;0.60;;;;;;;23.57;43.66;98553.36;109154;1287;1002321;-73
2023/10/28 03:06:29;;;;;;;1.50;0.40;;;;;;;23.56;43.59;98547.65;109882;1277;21981;-60
2023/10/28 03:08:54;;;;;;;4.50;0.50;;;;;;;23.55;43.62;98552.63;109899;1281;21915;-74
2023/10/28 03:11:20;;;;;;;3.40;0.60;;;;;;;23.53;43.51;98555.28;109899;1281;22280;-72
2023/10/28 03:13:46;;;;;;;1.10;0.30;;;;;;;23.49;43.52;98564.42;109912;1287;21914;-61
2023/10/28 03:16:12;;;;;;;3.40;0.50;;;;;;;23.43;43.64;98571.41;109908;1276;21948;-60
2023/10/28 03:18:37;;;;;;;2.20;0.40;;;;;;;23.39;43.50;98575.28;109149;1283;1002364;-60
2023/10/28 03:21:04;;;;;;;3.10;0.30;;;;;;;23.33;43.44;98574.20;109911;1276;21944;-61
2023/10/28 03:23:30;;;;;;;1.80;0.40;;;;;;;23.27;43.45;98575.11;109908;1276;21936;-76
2023/10/28 03:25:55;;;;;;;3.40;0.40;;;;;;;23.23;43.30;98573.52;109878;1287;21960;-73
2023/10/28 03:28:21;;;;;;;2.30;0.40;;;;;;;23.20;43.51;98580.92;109880;1282;21965;-73
2023/10/28 03:30:47;;;;;;;1.00;0.50;;;;;;;23.16;43.43;98601.09;109886;1287;21957;-62
2023/10/28 03:33:13;;;;;;;0.90;0.20;;;;;;;23.13;43.36;98601.23;109907;1282;21948;-60
2023/10/28 03:35:38;;;;;;;0.70;0.20;;;;;;;23.10;43.20;98596.32;109897;1277;21943;-60
2023/10/28 03:38:04;;;;;;;1.70;0.40;;;;;;;23.05;43.00;98593.38;109899;1279;21935;-60
2023/10/28 03:40:29;;;;;;;2.00;0.30;;;;;;;23.02;43.23;98598.13;109881;1285;21967;-60
2023/10/28 03:42:55;;;;;;;4.80;1.00;;;;;;;22.99;43.19;98598.02;109909;1286;22010;-71
2023/10/28 03:45:21;;;;;;;2.10;0.30;;;;;;;22.95;43.10;98597.36;109894;1276;22048;-70
2023/10/28 03:47:46;;;;;;;2.10;0.40;;;;;;;22.92;43.15;98601.59;109903;1287;22335;-60
2023/10/28 03:50:12;;;;;;;1.10;0.20;;;;;;;22.87;43.09;98609.46;109909;1287;21946;-60
2023/10/28 03:52:37;;;;;;;1.10;0.20;;;;;;;22.84;43.02;98619.23;109907;1287;21869;-62
2023/10/28 03:55:03;;;;;;;2.40;0.50;;;;;;;22.81;43.12;98621.88;109902;1283;21854;-61
2023/10/28 03:57:29;;;;;;;1.80;0.40;;;;;;;22.75;43.08;98629.54;109908;1287;21941;-70
2023/10/28 03:59:55;;;;;;;3.90;0.30;;;;;;;22.70;43.10;98634.45;109911;1281;21939;-60
2023/10/28 04:02:21;;;;;;;4.60;0.30;;;;;;;22.64;43.15;98632.66;109924;1279;21928;-69
2023/10/28 04:04:46;;;;;;;3.80;0.50;;;;;;;22.60;43.15;98629.52;109842;1279;22112;-61
2023/10/28 04:07:12;;;;;;;1.80;0.30;;;;;;;22.56;43.28;98633.40;109917;1278;21926;-60
2023/10/28 04:09:38;;;;;;;0.80;0.30;;;;;;;22.50;43.07;98640.92;109883;1286;22022;-60
2023/10/28 04:12:05;;;;;;;1.50;0.20;;;;;;;22.43;43.15;98639.56;109903;1280;21910;-62
2023/10/28 04:14:34;;;;;;;2.90;0.30;;;;;;;22.37;43.09;98642.21;109902;1279;21929;-70
2023/10/28 04:17:00;;;;;;;1.50;0.40;;;;;;;22.30;43.10;98653.52;109898;1286;22255;-70
2023/10/28 04:19:26;;;;;;;3.10;0.30;;;;;;;22.24;43.13;98660.86;109908;1281;22781;-69
2023/10/28 04:21:51;;;;;;;1.30;0.30;;;;;;;22.18;43.05;98662.25;109124;1286;1001985;-58
2023/10/28 04:24:18;;;;;;;3.90;0.40;;;;;;;22.14;43.27;98669.39;109900;1281;21989;-68
2023/10/28 04:26:44;;;;;;;1.60;0.20;;;;;;;22.12;43.31;98673.66;109907;1275;21947;-57
2023/10/28 04:29:10;;;;;;;2.10;0.40;;;;;;;22.10;43.31;98684.38;109894;1287;21983;-58
2023/10/28 04:31:35;;;;;;;3.30;0.50;;;;;;;22.09;43.40;98695.23;109918;1275;21917;-69
2023/10/28 04:34:03;;;;;;;0.50;0.20;;;;;;;22.07;43.37;98704.30;109920;1276;22109;-58
2023/10/28 04:36:28;;;;;;;3.50;0.50;;;;;;;21.98;43.46;98707.22;109900;1281;21906;-58
2023/10/28 04:38:54;;;;;;;2.70;0.30;;;;;;;21.92;43.49;98712.39;109912;1279;21862;-69
2023/10/28 04:41:20;;;;;;;2.40;0.50;;;;;;;21.88;43.50;98713.24;109901;1287;21917;-58
2023/10/28 04:43:45;;;;;;;0.30;0.10;;;;;;;21.85;43.56;98717.84;109928;1287;21968;-58
2023/10/28 04:46:11;;;;;;;2.00;0.50;;;;;;;21.82;43.62;98725.71;109910;1276;21942;-58
2023/10/28 04:48:38;;;;;;;1.70;0.70;;;;;;;21.80;43.64;98730.20;109904;1279;21929;-70
2023/10/28 04:51:05;;;;;;;1.50;0.20;;;;;;;21.76;43.78;98737.83;109912;1276;21862;-69
2023/10/28 04:53:31;;;;;;;2.50;0.50;;;;;;;21.73;43.69;98749.89;109884;1278;21862;-58
2023/10/28 04:55:57;;;;;;;0.80;0.40;;;;;;;21.70;43.72;98759.02;109909;1287;21873;-64
2023/10/28 04:58:24;;;;;;;3.60;0.50;;;;;;;21.67;43.72;98765.52;109912;1279;21983;-69
2023/10/28 05:00:50;;;;;;;4.50;0.50;;;;;;;21.64;43.79;98775.94;109915;1274;21963;-58
2023/10/28 05:03:15;;;;;;;3.10;0.40;;;;;;;21.62;43.87;98784.72;109893;1283;21920;-58
2023/10/28 05:05:41;;;;;;;1.20;0.30;;;;;;;21.60;43.92;98790.05;109892;1281;21952;-58
2023/10/28 05:08:07;;;;;;;4.40;0.30;;;;;;;21.58;44.01;98799.59;109907;1286;21929;-68
2023/10/28 05:10:33;;;;;;;1.60;0.30;;;;;;;21.58;43.99;98809.46;109916;1276;21936;-68
2023/10/28 05:12:59;;;;;;;0.90;0.20;;;;;;;21.56;43.95;98818.55;109913;1285;21933;-57
2023/10/28 05:15:25;;;;;;;5.30;0.40;;;;;;;21.57;43.96;98826.88;109909;1287;21983;-70
2023/10/28 05:17:50;;;;;;;2.40;0.50;;;;;;;21.58;43.99;98831.40;109905;1281;22361;-58
2023/10/28 05:20:16;;;;;;;4.30;0.60;;;;;;;21.57;43.95;98839.88;109898;1286;21931;-57
2023/10/28 05:22:42;;;;;;;5.50;1.10;;;;;;;21.54;44.09;98845.99;109950;1283;21973;-68
2023/10/28 05:25:08;;;;;;;5.70;0.60;;;;;;;21.54;43.95;98853.14;109969;1285;21954;-57
2023/10/28 05:27:34;;;;;;;2.40;0.30;;;;;;;21.50;43.98;98859.56;109954;1286;22025;-69
2023/10/28 05:30:00;;;;;;;4.50;0.40;;;;;;;21.47;43.95;98867.65;109942;1282;21955;-58
2023/10/28 05:32:26;;;;;;;2.60;0.20;;;;;;;21.43;44.02;98877.97;109961;1286;22013;-70
2023/10/28 05:34:52;;;;;;;2.60;0.30;;;;;;;21.41;44.11;98885.29;109915;1281;22044;-57
2023/10/28 05:37:17;;;;;;;1.30;0.40;;;;;;;21.39;44.12;98890.05;109972;1273;22001;-58
2023/10/28 05:39:43;;;;;;;2.30;0.40;;;;;;;21.38;44.07;98891.34;109964;1273;22162;-57
2023/10/28 05:42:11;;;;;;;5.20;0.40;;;;;;;21.38;44.15;98892.09;109953;1279;21989;-58
2023/10/28 05:44:37;;;;;;;4.40;0.40;;;;;;;21.40;44.18;98900.11;109968;1286;21957;-60
2023/10/28 05:47:04;;;;;;;4.50;0.50;;;;;;;21.47;44.19;98905.11;109979;1276;21965;-70
2023/10/28 05:49:30;;;;;;;3.30;0.40;;;;;;;21.51;44.10;98911.52;109921;1285;21945;-58
2023/10/28 05:51:55;;;;;;;4.80;0.60;;;;;;;21.56;44.11;98916.69;109970;1276;21934;-70
2023/10/28 05:54:21;;;;;;;3.40;0.50;;;;;;;21.66;44.23;98921.95;109966;1286;21951;-58
2023/10/28 05:56:47;;;;;;;1.50;0.50;;;;;;;21.74;44.28;98923.99;109968;1286;21936;-68
2023/10/28 05:59:13;;;;;;;3.80;0.40;;;;;;;21.77;44.47;98927.66;109963;1276;21928;-69
2023/10/28 06:01:39;;;;;;;1.80;0.40;;;;;;;21.85;44.33;98932.23;109976;1279;22372;-58
2023/10/28 06:04:04;;;;;;;7.10;0.50;;;;;;;21.94;44.31;98934.68;109966;1280;21946;-70
2023/10/28 06:06:31;;;;;;;2.30;0.50;;;;;;;22.02;44.34;98940.65;109884;1286;21934;-70
2023/10/28 06:09:00;;;;;;;3.00;0.40;;;;;;;22.10;44.29;98945.66;109968;1286;21932;-69
2023/10/28 06:11:26;;;;;;;2.90;0.70;;;;;;;22.21;44.35;98947.86;109966;1283;22022;-70
2023/10/28 06:13:52;;;;;;;3.40;0.50;;;;;;;22.33;44.24;98948.66;109958;1286;21930;-58
2023/10/28 06:16:21;;;;;;;4.40;0.50;;;;;;;22.44;44.18;98948.45;109987;1275;21917;-70
2023/10/28 06:18:47;;;;;;;3.90;0.70;;;;;;;22.56;44.09;98950.47;109930;1286;21931;-58
2023/10/28 06:21:14;;;;;;;4.30;1.10;;;;;;;22.68;44.10;98954.24;109964;1279;21962;-58
2023/10/28 06:23:40;;;;;;;2.50;0.40;;;;;;;22.83;44.04;98957.11;109973;1286;22010;-70
2023/10/28 06:26:07;;;;;;;3.10;0.40;;;;;;;22.96;43.82;98964.44;109962;1283;21943;-70
2023/10/28 06:28:39;;;;;;;3.80;0.60;;;;;;;23.10;43.51;98972.89;109979;1279;22002;-58
2023/10/28 06:31:05;;;;;;;2.80;0.60;;;;;;;23.24;43.24;98973.69;109949;1286;22012;-58
2023/10/28 06:33:32;;;;;;;1.20;0.30;;;;;;;23.37;42.92;98977.14;109959;1273;21996;-70
2023/10/28 06:35:58;;;;;;;3.40;0.50;;;;;;;23.48;42.68;98986.22;109923;1283;21916;-59
2023/10/28 06:38:26;;;;;;;1.60;0.30;;;;;;;23.58;42.56;98993.60;109947;1279;21951;-71
2023/10/28 06:40:51;;;;;;;3.00;1.00;;;;;;;23.70;42.55;98999.71;109952;1283;21983;-70
2023/10/28 06:43:22;;;;;;;1.60;0.60;;;;;;;23.83;42.15;99002.86;109948;1283;22011;-71
2023/10/28 06:45:48;;;;;;;1.90;0.60;;;;;;;23.95;42.20;99009.15;109976;1279;21861;-59
2023/10/28 06:48:15;;;;;;;1.30;0.30;;;;;;;24.07;41.76;99008.98;109958;1279;21938;-58
2023/10/28 06:50:41;;;;;;;2.90;0.50;;;;;;;24.15;41.20;99009.11;109974;1279;21921;-58
2023/10/28 06:53:09;;;;;;;3.00;0.80;;;;;;;24.23;40.88;99009.87;109960;1286;21842;-70
2023/10/28 06:55:34;;;;;;;2.90;0.40;;;;;;;24.31;40.71;99014.30;109955;1286;21923;-58
2023/10/28 06:58:00;;;;;;;2.40;0.30;;;;;;;24.40;40.20;99026.83;109945;1280;21964;-70
2023/10/28 07:00:28;;;;;;;3.50;0.30;;;;;;;24.49;40.26;99035.48;109972;1283;22400;-58
2023/10/28 07:02:55;;;;;;;1.80;0.30;;;;;;;24.59;39.99;99043.91;109962;1273;21943;-58
2023/10/28 07:05:21;;;;;;;2.10;0.30;;;;;;;24.67;39.63;99043.20;109975;1286;21963;-70
2023/10/28 07:07:47;;;;;;;3.20;0.40;;;;;;;24.72;39.57;99044.63;109962;1279;21972;-59
2023/10/28 07:10:15;;;;;;;1.50;0.30;;;;;;;24.79;39.42;99049.77;109948;1279;21889;-58
2023/10/28 07:12:41;;;;;;;3.60;0.30;;;;;;;24.87;39.35;99052.62;109947;1276;21934;-69
2023/10/28 07:15:13;;;;;;;2.20;0.60;;;;;;;24.96;38.82;99057.92;109967;1276;21989;-69
2023/10/28 07:17:43;;;;;;;2.30;0.30;;;;;;;25.07;38.86;99069.59;109955;1275;21939;-68
2023/10/28 07:20:09;;;;;;;0.80;0.20;;;;;;;25.17;38.68;99068.01;109956;1273;21989;-68
2023/10/28 07:22:35;;;;;;;1.70;0.30;;;;;;;25.24;38.30;99075.92;109979;1273;21927;-59
2023/10/28 07:25:00;;;;;;;0.70;0.20;;;;;;;25.32;37.91;99087.21;109962;1280;22025;-69
2023/10/28 07:27:26;;;;;;;2.80;0.80;;;;;;;25.36;37.71;99090.77;109966;1282;21846;-58
2023/10/28 07:29:52;;;;;;;3.10;0.50;;;;;;;25.41;37.27;99094.09;109952;1286;22006;-62
2023/10/28 07:32:18;;;;;;;1.10;0.30;;;;;;;25.48;37.16;99095.55;109953;1279;21858;-67
2023/10/28 07:34:44;;;;;;;2.40;0.60;;;;;;;25.53;36.96;99099.91;109956;1283;21936;-58
2023/10/28 07:37:10;;;;;;;2.70;0.50;;;;;;;25.56;36.49;99104.39;109956;1286;21967;-69
2023/10/28 07:39:35;;;;;;;1.90;0.50;;;;;;;25.61;36.53;99108.32;109960;1279;21985;-69
2023/10/28 07:42:01;;;;;;;1.60;0.60;;;;;;;25.67;36.37;99113.52;109947;1273;21919;-69
2023/10/28 07:44:27;;;;;;;5.60;0.70;;;;;;;25.74;35.92;99124.20;109953;1286;22003;-69
2023/10/28 07:46:53;;;;;;;4.60;0.70;;;;;;;25.78;35.88;99130.42;109954;1283;21922;-67
2023/10/28 07:49:19;;;;;;;6.50;2.00;;;;;;;25.83;35.50;99136.96;109982;1276;21913;-69
2023/10/28 07:51:44;;;;;;;4.40;1.20;;;;;;;25.92;35.68;99138.17;109953;1286;21950;-64
2023/10/28 07:54:14;;;;;;;4.50;0.90;;;;;;;26.04;35.33;99146.34;109958;1276;21935;-58
2023/10/28 07:56:41;;;;;;;7.50;0.80;;;;;;;26.08;35.05;99150.72;109952;1276;21942;-59
2023/10/28 07:59:09;;;;;;;3.60;0.40;;;;;;;26.08;34.84;99159.60;109968;1279;21970;-71
2023/10/28 08:01:34;;;;;;;1.00;0.30;;;;;;;26.08;34.74;99159.42;109964;1286;21945;-68
2023/10/28 08:04:00;;;;;;;0.80;0.30;;;;;;;26.13;34.67;99161.98;109970;1286;21931;-67
2023/10/28 08:06:26;;;;;;;1.50;0.60;;;;;;;26.21;34.66;99164.26;109948;1286;22101;-69
2023/10/28 08:08:55;;;;;;;3.90;0.40;;;;;;;26.31;34.59;99164.63;109961;1286;21906;-58
2023/10/28 08:11:24;;;;;;;1.60;0.20;;;;;;;26.39;34.13;99170.67;109966;1286;22012;-67
2023/10/28 08:13:50;;;;;;;4.30;0.40;;;;;;;26.46;33.46;99171.80;109965;1286;21968;-58
2023/10/28 08:16:19;;;;;;;10.00;0.60;;;;;;;26.51;33.49;99177.59;109968;1286;22009;-70
2023/10/28 08:18:45;;;;;;;4.30;0.80;;;;;;;26.56;33.43;99182.98;109955;1286;21914;-68
2023/10/28 08:21:13;;;;;;;4.40;0.70;;;;;;;26.58;33.33;99193.75;109949;1280;21948;-67
2023/10/28 08:23:40;;;;;;;3.00;0.40;;;;;;;26.61;33.40;99201.77;109968;1284;21934;-67
2023/10/28 08:26:10;;;;;;;3.70;0.90;;;;;;;26.68;33.47;99204.71;109958;1286;21935;-67
2023/10/28 08:28:36;;;;;;;5.20;1.00;;;;;;;26.78;33.38;99205.16;109953;1279;21923;-59
2023/10/28 08:31:02;;;;;;;5.60;1.70;;;;;;;26.84;33.22;99209.41;109954;1275;21950;-59
2023/10/28 08:33:28;;;;;;;4.50;0.90;;;;;;;26.88;32.89;99218.28;109938;1286;21941;-58
2023/10/28 08:35:56;;;;;;;0.90;0.40;;;;;;;26.92;32.92;99220.17;109952;1286;21938;-59
2023/10/28 08:38:22;;;;;;;5.00;1.10;;;;;;;27.02;33.10;99227.14;109943;1279;21926;-59
2023/10/28 08:40:47;;;;;;;1.80;0.50;;;;;;;27.08;32.73;99229.75;109952;1286;21936;-59
2023/10/28 08:43:14;;;;;;;4.30;0.30;;;;;;;27.11;32.67;99228.43;109963;1286;21927;-68
2023/10/28 08:45:40;;;;;;;1.40;0.40;;;;;;;27.17;32.55;99230.64;109960;1279;22007;-67
2023/10/28 08:48:06;;;;;;;7.00;2.10;;;;;;;27.27;32.14;99230.70;109968;1286;21965;-60
2023/10/28 08:50:32;;;;;;;3.30;0.50;;;;;;;27.33;31.61;99235.55;109937;1286;21857;-66
2023/10/28 08:52:57;;;;;;;6.30;0.50;;;;;;;27.33;31.44;99237.00;109971;1286;21948;-66
2023/10/28 08:55:26;;;;;;;2.60;0.50;;;;;;;27.39;31.23;99243.59;109880;1278;22018;-59
2023/10/28 08:57:52;;;;;;;2.80;0.30;;;;;;;27.42;31.49;99246.13;109975;1275;21946;-67
2023/10/28 09:00:20;;;;;;;3.60;0.20;;;;;;;27.40;31.59;99245.66;109924;1286;21953;-59
2023/10/28 09:02:47;;;;;;;2.20;0.30;;;;;;;27.42;31.31;99246.66;109965;1286;21886;-68
2023/10/28 09:05:14;;;;;;;1.00;0.30;;;;;;;27.42;31.36;99244.34;109905;1283;21801;-68
2023/10/28 09:07:40;;;;;;;5.50;0.50;;;;;;;27.46;31.56;99244.89;109964;1286;21907;-58
2023/10/28 09:10:06;;;;;;;1.60;0.30;;;;;;;27.54;31.20;99243.56;109952;1286;21985;-67
2023/10/28 09:12:32;;;;;;;1.00;0.20;;;;;;;27.65;31.34;99250.53;109969;1279;21897;-60
2023/10/28 09:14:58;;;;;;;0.70;0.30;;;;;;;27.67;30.96;99248.05;109975;1273;21915;-66
2023/10/28 09:17:23;;;;;;;3.90;0.30;;;;;;;27.64;31.11;99258.92;109943;1286;22030;-60
2023/10/28 09:19:52;;;;;;;1.90;0.20;;;;;;;27.62;31.12;99263.11;109962;1286;21983;-59
2023/10/28 09:22:18;;;;;;;1.10;0.40;;;;;;;27.60;30.98;99264.17;109971;1279;21950;-67
2023/10/28 09:24:47;;;;;;;1.50;0.50;;;;;;;27.64;31.03;99263.60;109963;1286;21911;-68
2023/10/28 09:27:14;;;;;;;1.40;0.40;;;;;;;27.71;30.67;99270.28;109952;1285;21977;-58
2023/10/28 09:29:41;;;;;;;2.60;1.10;;;;;;;27.70;30.55;99274.39;109958;1286;21968;-68
2023/10/28 09:32:08;;;;;;;3.50;0.50;;;;;;;27.70;30.59;99281.73;109942;1286;22020;-67
2023/10/28 09:34:38;;;;;;;2.00;0.60;;;;;;;27.67;30.47;99278.14;109963;1279;22030;-67
2023/10/28 09:37:05;;;;;;;2.10;1.00;;;;;;;27.64;30.52;99278.59;109966;1286;21955;-58
2023/10/28 09:39:38;;;;;;;5.10;0.60;;;;;;;27.67;30.60;99275.58;109963;1286;21970;-58
2023/10/28 09:42:04;;;;;;;2.30;0.80;;;;;;;27.75;30.41;99277.50;109959;1286;21896;-58
2023/10/28 09:44:29;;;;;;;2.70;0.40;;;;;;;27.81;30.28;99278.84;109955;1286;21998;-58
2023/10/28 09:47:03;;;;;;;1.00;0.30;;;;;;;27.86;30.55;99281.59;109960;1279;21933;-66
2023/10/28 09:49:30;;;;;;;1.90;0.50;;;;;;;27.94;30.51;99290.52;109955;1275;21979;-66
2023/10/28 09:52:05;;;;;;;1.20;0.30;;;;;;;28.03;30.32;99296.66;109946;1286;21920;-58
2023/10/28 09:54:35;;;;;;;4.20;0.40;;;;;;;28.07;30.19;99293.86;109961;1279;22353;-68
2023/10/28 09:57:01;;;;;;;1.20;0.20;;;;;;;28.13;30.13;99297.02;109982;1286;21899;-59
2023/10/28 09:59:29;;;;;;;1.30;0.30;;;;;;;28.18;30.02;99303.52;109971;1275;22018;-67
2023/10/28 10:02:31;;;;;;;4.40;0.40;;;;;;;28.21;29.97;99305.46;109971;1283;21923;-67
2023/10/28 10:05:05;;;;;;;1.40;0.30;;;;;;;28.26;29.96;99295.17;109961;1286;21943;-66
2023/10/28 10:07:32;;;;;;;1.40;0.30;;;;;;;28.33;30.16;99294.41;109959;1286;22422;-69
2023/10/28 10:10:13;;;;;;;3.10;0.60;;;;;;;28.42;29.59;99293.48;109961;1286;22172;-62
2023/10/28 10:12:39;;;;;;;3.30;0.40;;;;;;;28.53;29.08;99296.91;109957;1279;21907;-58
2023/10/28 10:15:10;;;;;;;2.40;0.40;;;;;;;28.64;28.65;99300.13;109962;1286;21934;-67
2023/10/28 10:17:44;;;;;;;2.80;0.50;;;;;;;28.71;28.63;99301.89;109914;1286;21902;-67
2023/10/28 10:20:10;;;;;;;1.90;0.30;;;;;;;28.75;28.11;99308.48;109962;1286;22905;-59
2023/10/28 10:22:38;;;;;;;6.10;0.80;;;;;;;28.79;28.49;99301.89;109967;1279;21971;-66
2023/10/28 10:25:04;;;;;;;2.20;0.50;;;;;;;28.86;28.22;99309.73;109940;1282;22422;-67
2023/10/28 10:27:44;;;;;;;3.50;0.30;;;;;;;28.82;28.20;99312.36;109952;1286;22159;-67
2023/10/28 10:30:10;;;;;;;1.20;0.30;;;;;;;28.74;28.03;99309.83;109935;1286;21873;-59
2023/10/28 10:32:40;;;;;;;0.50;0.20;;;;;;;28.73;28.19;99315.02;109964;1283;21936;-67
2023/10/28 10:35:26;;;;;;;1.70;0.40;;;;;;;28.76;27.77;99318.64;109950;1279;22005;-58
2023/10/28 10:38:08;;;;;;;1.70;0.40;;;;;;;28.73;27.81;99328.70;109955;1286;21949;-67
2023/10/28 10:40:50;;;;;;;4.10;0.40;;;;;;;28.70;27.58;99338.77;109202;1276;1002070;-59
2023/10/28 10:43:19;;;;;;;5.10;0.80;;;;;;;28.60;27.86;99339.30;109957;1286;21928;-59
2023/10/28 10:45:45;;;;;;;1.50;0.30;;;;;;;28.60;27.94;99339.80;109968;1276;22023;-68
2023/10/28 10:48:12;;;;;;;15.30;2.10;;;;;;;28.63;28.05;99344.18;109905;1286;21949;-62
2023/10/28 10:50:38;;;;;;;1.00;0.30;;;;;;;28.75;28.29;99340.13;109884;1286;22422;-59
2023/10/28 10:53:04;;;;;;;6.70;0.70;;;;;;;28.82;27.94;99339.96;109936;1283;21966;-59
2023/10/28 10:55:30;;;;;;;1.90;0.50;;;;;;;28.87;27.97;99345.17;109898;1276;21936;-58
2023/10/28 10:57:56;;;;;;;1.80;0.60;;;;;;;28.95;27.46;99352.86;109976;1286;21945;-59
2023/10/28 11:00:22;;;;;;;3.00;0.30;;;;;;;28.94;27.21;99360.50;109974;1273;21957;-66
2023/10/28 11:02:49;;;;;;;3.80;0.50;;;;;;;28.84;27.32;99369.30;109955;1286;21999;-66
2023/10/28 11:05:16;;;;;;;4.60;0.60;;;;;;;28.83;27.35;99373.72;109947;1283;22097;-59
2023/10/28 11:07:42;;;;;;;4.10;0.50;;;;;;;28.82;27.48;99369.89;109961;1286;22003;-66
2023/10/28 11:10:08;;;;;;;31.50;1.90;;;;;;;28.84;27.74;99372.23;109964;1279;21960;-66
2023/10/28 11:12:35;;;;;;;3.90;0.40;;;;;;;28.87;27.50;99374.08;109955;1286;22002;-60
2023/10/28 11:15:00;;;;;;;4.10;0.60;;;;;;;28.83;27.32;99367.30;109964;1279;21947;-59
2023/10/28 11:17:26;;;;;;;1.60;0.50;;;;;;;28.83;27.38;99366.38;109904;1286;22010;-59
2023/10/28 11:19:52;;;;;;;0.60;0.40;;;;;;;28.85;26.97;99365.78;109855;1287;21950;-66
2023/10/28 11:22:17;;;;;;;2.40;0.30;;;;;;;28.85;26.96;99370.52;109844;1287;21911;-60